Time;durP1;ratioP1;P1;durP2;ratioP2;P2;SDS_P1;SDS_P2;PMS_P1;PMS_P2;Temp;Humidity;BMP_temperature;BMP_pressure;BME280_temperature;BME280_humidity;BME280_pressure;Samples;Min_cycle;Max_cycle;Signal;HPM_P1;HPM_P2
2022/06/27 00:01:45;;;;;;;12.50;11.40;;;22.90;81.60;;;23.14;60.52;100764.41;5011280;28;21010;-75
2022/06/27 00:04:14;;;;;;;12.60;11.30;;;22.90;79.70;;;23.23;59.74;100764.63;5027666;28;20452;-75
2022/06/27 00:06:43;;;;;;;13.50;12.40;;;22.90;76.40;;;23.33;59.47;100759.00;5009237;28;20927;-75
2022/06/27 00:09:12;;;;;;;14.00;12.60;;;23.00;72.40;;;23.36;59.19;100763.94;5005178;28;20416;-75
2022/06/27 00:11:41;;;;;;;13.10;11.90;;;23.10;69.90;;;23.33;59.35;100761.78;5006303;28;20507;-75
2022/06/27 00:14:11;;;;;;;13.17;11.87;;;23.10;70.30;;;23.23;59.38;100759.94;5023921;28;20950;-75
2022/06/27 00:16:40;;;;;;;12.00;11.00;;;23.00;70.40;;;23.15;59.92;100768.81;5008068;28;20462;-76
2022/06/27 00:19:18;;;;;;;13.17;11.93;;;23.00;72.90;;;23.03;60.27;100764.78;5008461;28;20528;-75
2022/06/27 00:21:47;;;;;;;12.70;11.60;;;22.90;74.10;;;22.94;60.68;100775.63;5017197;28;20487;-76
2022/06/27 00:24:16;;;;;;;13.30;12.20;;;22.80;77.40;;;22.82;60.94;100778.72;5010067;28;20543;-75
2022/06/27 00:26:45;;;;;;;14.90;13.60;;;22.70;79.00;;;22.74;61.13;100784.03;5013362;28;20450;-75
2022/06/27 00:29:15;;;;;;;13.83;12.53;;;22.60;81.50;;;22.64;61.33;100784.88;5009409;28;20437;-75
2022/06/27 00:31:44;;;;;;;13.10;11.37;;;22.60;83.30;;;22.54;61.97;100791.28;5009925;28;20449;-76
2022/06/27 00:34:13;;;;;;;14.70;13.30;;;22.50;87.00;;;22.49;62.41;100782.19;4991384;28;20543;-75
2022/06/27 00:36:42;;;;;;;14.10;12.70;;;22.40;90.50;;;22.50;62.48;100781.94;5022291;28;20435;-76
2022/06/27 00:39:11;;;;;;;15.23;13.87;;;22.40;91.20;;;22.45;62.25;100776.44;5007580;28;20555;-76
2022/06/27 00:41:40;;;;;;;14.27;13.07;;;22.40;91.70;;;22.40;62.95;100783.91;5011208;23;20529;-73
2022/06/27 00:44:09;;;;;;;15.77;14.37;;;22.30;93.10;;;22.37;62.99;100784.44;4990894;28;20997;-74
2022/06/27 00:46:39;;;;;;;14.97;13.70;;;22.20;93.70;;;22.38;62.95;100783.34;4983807;28;20456;-73
2022/06/27 00:49:08;;;;;;;14.60;13.33;;;22.20;94.20;;;22.35;63.07;100781.16;4988309;28;20433;-75
2022/06/27 00:51:37;;;;;;;17.10;15.60;;;22.20;95.40;;;22.35;63.28;100776.47;4985061;28;20485;-74
2022/06/27 00:54:06;;;;;;;20.73;18.83;;;22.20;95.10;;;22.41;63.02;100777.28;4987898;28;20445;-73
2022/06/27 00:56:35;;;;;;;17.63;16.10;;;22.20;95.10;;;22.41;63.33;100777.28;4958892;28;20562;-74
2022/06/27 00:59:04;;;;;;;20.43;18.63;;;22.20;95.70;;;22.29;63.09;100788.63;4988710;28;20951;-74
2022/06/27 01:01:33;;;;;;;21.87;19.93;;;22.20;95.70;;;22.22;63.55;100781.78;4988324;28;20465;-74
2022/06/27 01:04:04;;;;;;;26.37;24.07;;;22.10;96.30;;;22.17;63.82;100773.53;4971961;28;20462;-74
2022/06/27 01:06:34;;;;;;;30.33;27.73;;;22.10;97.20;;;22.21;64.02;100764.44;4973036;28;20465;-74
2022/06/27 01:09:03;;;;;;;24.70;22.30;;;22.00;97.60;;;22.19;64.03;100771.31;4989255;28;20433;-74
2022/06/27 01:11:33;;;;;;;31.87;28.97;;;22.00;97.90;;;22.13;63.88;100764.16;4988711;28;20462;-74
2022/06/27 01:14:03;;;;;;;29.40;26.83;;;22.00;98.00;;;22.09;64.17;100767.50;4961678;28;20452;-74
2022/06/27 01:16:31;;;;;;;26.87;24.47;;;22.00;98.20;;;22.11;64.41;100775.50;4971648;28;21014;-74
2022/06/27 01:19:04;;;;;;;27.87;25.47;;;22.00;98.50;;;22.03;64.34;100781.56;4972046;28;20432;-73
2022/06/27 01:21:40;;;;;;;29.83;27.23;;;21.90;99.50;;;21.98;64.99;100776.88;4980730;28;20470;-73
2022/06/27 01:24:11;;;;;;;27.67;25.03;;;21.90;99.90;;;21.95;64.94;100780.22;4973228;28;20476;-75
2022/06/27 01:26:42;;;;;;;27.97;25.60;;;21.90;99.90;;;21.93;65.17;100776.06;4989594;28;20971;-73
2022/06/27 01:29:16;;;;;;;27.13;24.70;;;21.80;99.90;;;21.88;65.45;100776.88;4972247;28;20872;-74
2022/06/27 01:31:45;;;;;;;28.50;26.13;;;21.70;99.90;;;21.88;65.39;100771.38;4970206;28;20494;-74
2022/06/27 01:34:15;;;;;;;25.60;23.10;;;21.70;99.90;;;22.04;65.03;100781.28;4972084;28;20556;-74
2022/06/27 01:36:47;;;;;;;24.70;22.00;;;21.80;99.90;;;22.06;64.76;100773.56;4971895;28;20955;-73
2022/06/27 01:39:22;;;;;;;22.67;20.77;;;21.80;99.90;;;22.12;64.39;100776.31;4964782;28;20524;-73
2022/06/27 01:41:53;;;;;;;27.60;21.83;;;21.90;99.90;;;22.13;64.71;100780.69;4988658;28;20851;-74
2022/06/27 01:44:27;;;;;;;21.33;19.47;;;21.90;99.90;;;22.06;64.91;100783.78;4987929;28;20449;-74
2022/06/27 01:47:03;;;;;;;20.23;18.53;;;21.90;99.90;;;22.01;64.81;100792.88;4988252;28;20787;-74
2022/06/27 01:49:35;;;;;;;22.73;20.53;;;21.80;99.90;;;22.00;65.17;100788.47;4989074;28;20477;-74
2022/06/27 01:52:06;;;;;;;18.43;16.83;;;21.80;99.90;;;21.90;65.22;100785.72;4989337;28;20654;-74
2022/06/27 01:54:38;;;;;;;20.23;18.43;;;21.80;99.90;;;21.88;65.54;100782.41;4988268;28;20796;-74
2022/06/27 01:57:08;;;;;;;18.27;16.67;;;21.70;99.90;;;21.87;65.17;100783.53;4970601;28;20454;-74
2022/06/27 01:59:38;;;;;;;19.50;17.60;;;21.70;99.90;;;21.90;64.88;100785.72;4971428;28;20801;-74
2022/06/27 02:02:09;;;;;;;18.23;16.53;;;21.70;99.90;;;21.84;65.46;100786.00;4972073;28;20581;-73
2022/06/27 02:04:39;;;;;;;17.97;16.27;;;21.70;99.90;;;21.85;65.29;100784.91;4991832;28;20468;-73
2022/06/27 02:07:08;;;;;;;16.07;14.47;;;21.60;99.90;;;21.89;65.29;100784.06;4989773;28;20417;-74
2022/06/27 02:09:39;;;;;;;14.70;12.90;;;21.70;99.90;;;21.97;64.70;100786.28;4990747;28;20443;-73
2022/06/27 02:12:23;;;;;;;14.87;13.27;;;21.70;99.90;;;21.90;64.86;100793.97;4987696;28;20450;-74
2022/06/27 02:14:55;;;;;;;16.43;14.73;;;21.70;99.90;;;21.78;65.47;100787.97;4966015;28;20480;-74
2022/06/27 02:17:35;;;;;;;16.10;14.60;;;21.60;99.90;;;21.68;65.78;100796.25;4977317;28;20460;-74
2022/06/27 02:20:09;;;;;;;16.30;14.70;;;21.60;99.90;;;21.65;65.96;100794.84;4974422;28;20496;-73
2022/06/27 02:22:39;;;;;;;17.57;15.97;;;21.50;99.90;;;21.73;65.75;100796.22;4996824;28;20721;-74
2022/06/27 02:25:10;;;;;;;16.43;14.93;;;21.50;99.90;;;21.76;66.09;100792.91;5002037;28;20492;-74
2022/06/27 02:27:41;;;;;;;16.37;14.87;;;21.50;99.90;;;21.75;65.84;100791.25;5004995;28;20459;-75
2022/06/27 02:30:15;;;;;;;15.87;14.47;;;21.50;99.90;;;21.73;65.76;100796.22;5006277;28;20412;-74
2022/06/27 02:32:44;;;;;;;16.37;15.00;;;21.50;99.90;;;21.71;65.93;100800.34;4992957;28;20474;-74
2022/06/27 02:35:16;;;;;;;16.10;14.60;;;21.50;99.90;;;21.79;65.78;100800.59;5007364;28;20483;-74
2022/06/27 02:37:45;;;;;;;15.60;14.10;;;21.60;99.90;;;21.88;65.32;100801.69;4977707;28;20466;-73
2022/06/27 02:40:20;;;;;;;15.97;14.50;;;21.60;99.90;;;22.02;64.59;100801.97;4987100;28;20460;-73
2022/06/27 02:42:51;;;;;;;16.43;14.93;;;21.70;99.90;;;22.03;64.54;100801.66;5009875;28;20470;-73
2022/06/27 02:45:21;;;;;;;16.17;14.87;;;21.80;99.90;;;22.04;65.00;100813.53;5000974;28;20499;-74
2022/06/27 02:47:53;;;;;;;15.40;14.10;;;21.80;99.90;;;21.94;65.18;100811.63;5023147;28;20445;-74
2022/06/27 02:50:27;;;;;;;18.33;14.67;;;21.70;99.90;;;21.93;64.90;100811.91;5008183;28;20411;-73
2022/06/27 02:53:09;;;;;;;16.30;14.80;;;21.70;99.90;;;22.10;64.35;100813.25;5012767;28;20554;-73
2022/06/27 02:55:42;;;;;;;17.77;16.27;;;21.80;99.90;;;22.18;64.00;100814.56;5006567;28;20457;-74
2022/06/27 02:58:19;;;;;;;16.30;14.67;;;21.90;99.20;;;22.21;64.04;100819.53;4997375;28;20489;-73
2022/06/27 03:00:50;;;;;;;16.47;14.90;;;21.90;98.50;;;22.22;63.92;100820.38;5004525;28;20428;-74
2022/06/27 03:03:20;;;;;;;16.67;15.10;;;22.00;98.20;;;22.24;63.62;100815.38;5010434;28;20455;-73
2022/06/27 03:05:58;;;;;;;17.10;15.70;;;22.00;98.00;;;22.32;63.38;100825.81;5027627;28;20459;-73
2022/06/27 03:08:37;;;;;;;15.10;13.80;;;22.10;97.30;;;22.24;63.96;100818.97;5002651;28;20444;-73
2022/06/27 03:11:10;;;;;;;14.80;13.50;;;22.10;97.50;;;22.25;64.09;100822.56;5009665;28;20428;-74
2022/06/27 03:13:39;;;;;;;14.30;13.07;;;22.00;97.60;;;22.25;63.55;100819.81;5007724;28;20850;-74
2022/06/27 03:16:09;;;;;;;14.97;13.77;;;22.00;97.90;;;22.39;63.73;100820.84;5025703;28;20785;-75
2022/06/27 03:18:39;;;;;;;16.73;15.33;;;22.10;97.30;;;22.42;63.23;100826.63;4997459;28;20427;-74
2022/06/27 03:21:26;;;;;;;16.53;15.10;;;22.10;96.60;;;22.49;63.33;100823.56;5006860;28;20801;-73
2022/06/27 03:24:01;;;;;;;15.70;14.30;;;22.20;96.70;;;22.53;63.13;100813.63;5010640;28;20482;-75
2022/06/27 03:26:32;;;;;;;16.63;15.17;;;22.20;96.20;;;22.61;63.08;100821.28;5010576;28;20458;-74
2022/06/27 03:29:03;;;;;;;17.30;15.70;;;22.30;95.90;;;22.66;62.93;100825.94;5012549;28;20452;-73
2022/06/27 03:31:34;;;;;;;15.67;14.33;;;22.30;96.30;;;22.74;62.88;100829.00;5007969;28;20447;-74
2022/06/27 03:34:06;;;;;;;17.70;16.10;;;22.40;95.80;;;22.82;62.49;100831.13;5010312;28;20782;-74
2022/06/27 03:36:53;;;;;;;15.40;14.10;;;22.50;94.60;;;23.16;61.18;100833.94;5004042;28;20611;-74
2022/06/27 03:39:22;;;;;;;17.20;15.70;;;22.60;92.80;;;23.38;60.51;100833.53;5006488;28;20490;-73
2022/06/27 03:41:53;;;;;;;16.37;15.07;;;22.70;91.20;;;24.12;58.86;100833.09;5003386;28;20546;-74
2022/06/27 03:44:22;;;;;;;16.27;14.77;;;23.10;88.70;;;25.35;56.01;100833.94;5010108;28;20455;-75
2022/06/27 03:46:53;;;;;;;15.13;13.83;;;23.60;78.40;;;26.87;51.32;100828.25;5026952;28;20730;-75
2022/06/27 03:52:22;;;;;;;17.03;15.50;;;25.30;45.50;;;28.83;46.42;100838.09;5006563;28;21070;-74
2022/06/27 03:54:52;;;;;;;16.00;14.70;;;26.00;32.70;;;29.34;45.12;100840.09;5002993;28;20712;-74
2022/06/27 03:57:22;;;;;;;15.87;14.50;;;26.60;26.80;;;30.00;43.69;100837.03;5006434;28;20472;-75
2022/06/27 03:59:53;;;;;;;16.30;14.80;;;26.90;23.50;;;30.46;42.65;100839.81;4998274;28;20975;-74
2022/06/27 04:02:26;;;;;;;15.80;14.40;;;27.10;20.70;;;30.75;41.86;100838.16;5001859;28;20473;-74
2022/06/27 04:05:24;;;;;;;15.47;14.27;;;27.40;19.00;;;31.05;41.24;100828.59;5003956;28;20782;-74
2022/06/27 04:07:54;;;;;;;16.53;14.80;;;27.60;16.60;;;30.61;42.06;100830.03;5009465;28;20480;-74
2022/06/27 04:10:23;;;;;;;15.70;14.20;;;28.00;14.40;;;30.93;41.48;100828.50;5009116;28;20448;-74
2022/06/27 04:12:53;;;;;;;15.90;14.70;;;28.00;14.30;;;31.15;41.34;100830.97;5025550;28;20472;-74
2022/06/27 04:15:41;;;;;;;14.00;12.90;;;28.00;13.20;;;31.61;40.38;100834.72;5011011;28;20433;-74
2022/06/27 04:18:30;;;;;;;14.17;13.07;;;28.00;12.90;;;31.62;40.10;100827.94;5009898;28;20452;-73
2022/06/27 04:21:17;;;;;;;17.33;15.67;;;28.20;11.70;;;31.32;40.72;100828.03;5009112;28;20436;-74
2022/06/27 04:23:57;;;;;;;16.00;14.70;;;28.30;10.80;;;31.35;40.61;100816.16;4997151;28;20476;-74
2022/06/27 04:26:39;;;;;;;17.07;15.57;;;28.30;10.30;;;31.30;40.67;100819.16;5025845;28;20480;-74
2022/06/27 04:29:09;;;;;;;15.50;14.20;;;28.30;10.00;;;31.38;40.45;100815.47;5006154;28;20935;-74
2022/06/27 04:31:38;;;;;;;14.47;13.33;;;28.40;9.60;;;32.06;39.61;100813.09;5011362;28;20453;-74
2022/06/27 04:34:07;;;;;;;15.80;14.50;;;28.50;9.30;;;32.28;39.07;100814.66;5000460;28;20442;-74
2022/06/27 04:36:45;;;;;;;15.57;14.37;;;28.70;8.60;;;32.87;38.17;100809.38;5017191;28;20453;-74
2022/06/27 04:39:15;;;;;;;16.40;14.90;;;29.00;7.90;;;32.60;38.17;100804.47;5008824;28;20958;-74
2022/06/27 04:41:51;;;;;;;15.17;14.00;;;29.20;6.90;;;32.88;37.84;100796.16;5008962;28;20484;-74
2022/06/27 04:44:25;;;;;;;15.37;14.07;;;29.30;6.10;;;33.24;37.49;100800.84;4998814;28;21128;-73
2022/06/27 04:46:56;;;;;;;14.97;13.67;;;29.30;6.00;;;33.60;36.80;100806.28;4997305;28;20492;-73
2022/06/27 04:49:28;;;;;;;15.03;13.90;;;29.30;5.40;;;33.47;36.81;100804.72;5003239;28;20527;-73
2022/06/27 04:52:01;;;;;;;15.60;14.50;;;29.50;4.70;;;34.05;36.11;100806.72;5019241;28;20468;-74
2022/06/27 04:54:30;;;;;;;14.63;13.43;;;29.70;4.30;;;33.98;36.41;100806.53;5017206;28;20601;-74
2022/06/27 04:56:59;;;;;;;13.40;12.20;;;29.70;3.80;;;34.37;35.55;100799.09;5023703;28;20452;-73
2022/06/27 04:59:30;;;;;;;15.67;14.27;;;29.80;3.50;;;33.69;36.60;100806.16;5007906;28;20788;-73
2022/06/27 05:02:10;;;;;;;15.10;13.90;;;29.90;2.60;;;34.12;35.96;100796.84;5008069;28;20481;-74
2022/06/27 05:04:39;;;;;;;13.47;12.47;;;30.10;2.40;;;33.85;35.90;100813.41;5023485;28;20902;-74
2022/06/27 05:07:08;;;;;;;13.70;12.60;;;30.40;1.50;;;33.31;36.93;100813.06;5000473;28;20835;-73
2022/06/27 05:09:37;;;;;;;13.50;12.40;;;30.20;1.00;;;33.97;35.95;100804.91;5008414;28;21095;-73
2022/06/27 05:12:07;;;;;;;15.10;14.00;;;30.10;1.30;;;33.98;36.13;100798.13;5009375;28;20469;-74
2022/06/27 05:14:38;;;;;;;14.67;13.57;;;30.20;1.20;;;33.92;36.17;100805.19;5001839;28;21012;-73
2022/06/27 05:17:06;;;;;;;13.83;12.53;;;30.40;1.00;;;33.64;36.08;100810.00;5006991;28;20852;-73
2022/06/27 05:19:36;;;;;;;15.63;14.40;;;30.50;1.00;;;33.87;36.08;100807.44;4998272;28;20446;-74
2022/06/27 05:22:07;;;;;;;14.20;12.90;;;30.50;1.00;;;34.39;35.17;100812.78;5004312;28;20557;-73
2022/06/27 05:24:36;;;;;;;16.33;15.03;;;30.70;1.00;;;35.29;33.73;100808.84;5004179;28;20477;-74
2022/06/27 05:27:05;;;;;;;16.13;14.93;;;31.00;1.00;;;35.12;34.24;100807.25;4996676;28;21131;-73
2022/06/27 05:29:34;;;;;;;15.10;13.90;;;30.70;1.00;;;35.15;34.26;100811.28;5007139;28;20457;-75
2022/06/27 05:32:07;;;;;;;13.80;12.60;;;30.50;1.00;;;35.64;33.46;100805.88;4997875;28;20482;-75
2022/06/27 05:34:36;;;;;;;15.30;14.10;;;31.10;1.00;;;35.36;33.58;100808.97;5007594;28;21035;-73
2022/06/27 05:37:06;;;;;;;16.13;14.60;;;31.20;1.00;;;35.00;34.45;100812.22;5006306;28;20547;-73
2022/06/27 05:39:36;;;;;;;15.37;14.10;;;31.50;1.00;;;33.34;36.51;100817.19;4995466;28;20553;-74
2022/06/27 05:42:06;;;;;;;15.33;14.13;;;31.10;1.00;;;30.98;41.15;100811.53;5020114;28;20569;-73
2022/06/27 05:44:35;;;;;;;17.03;15.63;;;30.10;1.00;;;29.57;43.75;100812.03;5004259;28;20468;-73
2022/06/27 05:47:07;;;;;;;15.33;13.93;;;29.40;1.20;;;28.76;45.83;100809.06;5025701;28;20445;-74
2022/06/27 05:49:37;;;;;;;14.87;13.40;;;28.60;3.20;;;28.38;46.90;100812.41;5007540;28;20809;-74
2022/06/27 05:52:07;;;;;;;15.00;13.70;;;28.10;5.10;;;28.08;47.36;100818.81;5007075;28;20556;-74
2022/06/27 05:54:36;;;;;;;14.37;13.17;;;27.70;6.20;;;27.97;47.69;100817.47;4998840;28;20476;-74
2022/06/27 05:57:06;;;;;;;14.70;13.30;;;27.50;7.80;;;28.05;47.53;100820.28;5006510;28;20501;-75
2022/06/27 05:59:35;;;;;;;15.17;13.77;;;27.50;8.10;;;28.16;47.77;100822.81;5010425;28;20838;-74
2022/06/27 06:02:06;;;;;;;17.07;15.40;;;27.50;9.10;;;28.16;47.42;100825.59;5008102;28;20850;-74
2022/06/27 06:04:39;;;;;;;15.07;13.57;;;27.60;8.90;;;28.02;47.46;100823.72;5023028;28;20991;-74
2022/06/27 06:07:12;;;;;;;13.20;12.00;;;27.60;8.40;;;28.15;47.92;100823.97;4997129;28;20524;-74
2022/06/27 06:09:41;;;;;;;14.13;12.90;;;27.60;8.80;;;28.08;47.93;100822.41;4995795;28;20539;-74
2022/06/27 06:12:12;;;;;;;14.40;13.20;;;27.60;8.70;;;28.25;47.38;100815.31;5006548;28;20484;-74
2022/06/27 06:14:47;;;;;;;14.77;13.60;;;27.60;9.00;;;28.50;47.90;100822.94;5003284;28;20449;-74
2022/06/27 06:17:18;;;;;;;14.93;13.70;;;27.80;9.90;;;28.64;47.25;100828.38;5017368;28;20529;-74
2022/06/27 06:19:47;;;;;;;13.87;12.77;;;28.00;9.00;;;28.61;46.82;100823.47;5006256;28;20890;-75
2022/06/27 06:22:17;;;;;;;14.30;13.17;;;28.10;8.50;;;28.60;46.63;100822.63;4997383;28;20465;-74
2022/06/27 06:24:47;;;;;;;14.03;12.73;;;28.00;8.20;;;28.44;47.35;100822.25;5009571;28;20472;-74
2022/06/27 06:27:16;;;;;;;15.27;14.07;;;28.00;8.30;;;28.35;47.36;100815.84;5026359;28;20437;-74
2022/06/27 06:29:45;;;;;;;15.17;13.67;;;28.00;8.50;;;28.30;48.17;100817.97;5025073;28;20435;-74
2022/06/27 06:32:15;;;;;;;15.03;13.73;;;27.80;9.30;;;28.54;47.31;100812.78;5024413;28;20467;-74
2022/06/27 06:34:48;;;;;;;17.50;14.17;;;28.00;9.50;;;28.66;47.33;100814.94;5025405;28;20433;-74
2022/06/27 06:37:17;;;;;;;13.97;12.63;;;28.10;8.80;;;28.97;47.06;100820.41;5006898;28;20832;-74
2022/06/27 06:39:46;;;;;;;12.00;11.07;;;28.40;8.90;;;28.87;46.33;100816.81;5004540;28;20464;-74
2022/06/27 06:42:15;;;;;;;13.30;12.10;;;28.30;7.50;;;28.93;45.72;100807.16;5043092;23;21023;-72
2022/06/27 06:45:11;;;;;;;13.00;11.97;;;28.40;7.20;;;29.04;45.72;100812.41;5027368;28;20572;-70
2022/06/27 06:47:52;;;;;;;13.70;12.50;;;28.50;7.10;;;29.09;45.57;100820.59;5024897;28;20540;-71
2022/06/27 06:50:24;;;;;;;13.10;12.10;;;28.60;6.60;;;29.31;45.69;100818.47;5005456;28;20423;-72
2022/06/27 06:52:54;;;;;;;13.10;12.00;;;28.80;7.00;;;29.53;45.41;100820.22;5010719;28;21024;-71
2022/06/27 06:55:24;;;;;;;12.70;11.43;;;28.80;6.60;;;29.65;45.02;100814.81;5027144;22;21174;-76
2022/06/27 06:57:54;;;;;;;12.40;11.50;;;29.10;5.90;;;29.76;44.31;100804.13;5055956;28;20442;-76
2022/06/27 07:00:23;;;;;;;14.70;13.30;;;29.20;5.10;;;29.53;44.62;100806.28;5054928;28;20458;-74
2022/06/27 07:02:53;;;;;;;11.60;10.50;;;29.10;4.70;;;29.57;44.74;100807.28;5038718;28;20458;-75
2022/06/27 07:05:25;;;;;;;12.53;11.60;;;29.10;4.80;;;29.76;44.43;100801.31;5064632;28;20482;-76
2022/06/27 07:07:54;;;;;;;12.73;11.63;;;29.30;5.10;;;29.90;43.96;100799.16;5068108;28;20436;-75
2022/06/27 07:10:25;;;;;;;12.37;11.37;;;29.30;4.60;;;29.93;43.95;100797.66;5061846;28;20433;-75
2022/06/27 07:12:54;;;;;;;13.07;11.87;;;29.40;4.30;;;29.95;43.74;100787.00;5065154;28;20469;-76
2022/06/27 07:15:24;;;;;;;11.97;11.00;;;29.40;3.70;;;30.17;43.18;100786.72;5068340;28;20428;-76
2022/06/27 07:17:53;;;;;;;11.63;10.63;;;29.60;3.30;;;30.11;42.89;100785.31;5072822;28;20911;-75
2022/06/27 07:20:24;;;;;;;11.47;10.57;;;29.60;2.70;;;30.25;42.42;100782.28;5072670;28;20487;-75
2022/06/27 07:22:54;;;;;;;10.40;9.50;;;29.70;2.60;;;30.16;43.16;100785.13;5072538;28;20454;-75
2022/06/27 07:25:25;;;;;;;11.80;10.47;;;29.70;2.50;;;30.51;42.49;100783.78;5072549;28;20466;-74
2022/06/27 07:27:55;;;;;;;10.20;9.30;;;29.90;2.20;;;30.75;41.47;100785.06;5072802;28;20443;-75
2022/06/27 07:30:24;;;;;;;10.37;9.47;;;30.10;1.10;;;30.94;41.11;100771.44;5072528;28;20755;-74
2022/06/27 07:32:53;;;;;;;11.23;10.33;;;30.30;1.00;;;31.01;41.08;100774.53;5072393;28;20509;-74
2022/06/27 07:35:22;;;;;;;11.57;10.47;;;30.40;1.00;;;31.12;41.16;100777.75;5071833;28;20469;-74
2022/06/27 07:37:52;;;;;;;10.07;9.27;;;30.50;1.00;;;31.25;41.21;100777.44;5072988;28;20434;-74
2022/06/27 07:40:24;;;;;;;9.57;8.77;;;30.70;1.00;;;31.32;40.67;100783.28;5072538;28;20449;-76
2022/06/27 07:42:55;;;;;;;9.83;9.03;;;30.80;1.00;;;31.38;40.46;100781.09;5073394;28;20452;-76
2022/06/27 07:45:26;;;;;;;10.43;9.53;;;30.90;1.00;;;31.52;40.05;100782.41;5066418;28;20571;-73
2022/06/27 07:47:55;;;;;;;9.73;8.83;;;31.10;1.00;;;31.56;40.35;100773.34;5072692;28;20426;-75
2022/06/27 07:50:40;;;;;;;11.23;9.20;;;31.10;1.00;;;31.63;39.92;100770.81;5071915;28;20446;-73
2022/06/27 07:53:14;;;;;;;10.93;9.30;;;31.10;1.00;;;31.74;39.72;100760.84;5072962;28;20504;-75
2022/06/27 07:55:49;;;;;;;10.70;9.80;;;31.30;1.00;;;31.59;39.83;100758.69;5072269;28;20540;-76
2022/06/27 07:58:26;;;;;;;11.07;10.07;;;31.10;1.00;;;31.90;39.50;100765.38;5067761;28;20436;-75
2022/06/27 08:00:55;;;;;;;9.20;8.40;;;31.40;1.00;;;32.03;38.71;100759.81;5070928;28;20439;-76
2022/06/27 08:03:44;;;;;;;9.03;8.13;;;31.50;1.00;;;31.93;39.29;100763.88;5072417;28;20502;-75
2022/06/27 08:06:17;;;;;;;9.50;8.80;;;31.50;1.00;;;32.13;38.61;100767.78;5073414;28;20459;-74
2022/06/27 08:08:50;;;;;;;9.70;8.73;;;31.70;1.00;;;32.32;38.34;100757.59;5070004;28;20434;-75
2022/06/27 08:11:23;;;;;;;9.73;8.93;;;31.80;1.00;;;32.34;38.50;100760.84;5072465;28;20450;-73
2022/06/27 08:13:55;;;;;;;6.97;6.37;;;31.80;1.00;;;32.35;36.76;100756.91;5072689;28;20838;-76
2022/06/27 08:16:27;;;;;;;7.53;6.93;;;31.90;1.00;;;32.58;37.08;100764.81;5049963;28;20445;-75
2022/06/27 08:18:56;;;;;;;7.50;6.90;;;32.00;1.00;;;32.35;36.48;100759.69;5064710;28;20454;-76
2022/06/27 08:21:27;;;;;;;8.23;7.63;;;31.90;1.00;;;32.56;35.91;100758.72;5071042;28;20462;-76
2022/06/27 08:24:00;;;;;;;7.10;6.40;;;32.00;1.00;;;32.82;35.34;100766.75;5054847;28;20835;-75
2022/06/27 08:26:31;;;;;;;7.83;6.60;;;32.20;1.00;;;32.69;35.45;100769.59;5056202;28;20476;-74
2022/06/27 08:29:02;;;;;;;7.60;7.00;;;32.30;1.00;;;32.60;35.01;100756.84;5069474;28;20430;-73
2022/06/27 08:31:32;;;;;;;8.77;6.47;;;32.20;1.00;;;32.84;34.80;100747.59;5074703;28;20502;-74
2022/06/27 08:34:02;;;;;;;6.90;6.40;;;32.30;1.00;;;32.80;34.16;100755.91;5072964;28;20490;-76
2022/06/27 08:36:35;;;;;;;6.30;5.77;;;32.40;1.00;;;32.52;34.77;100755.00;5072730;28;20894;-75
2022/06/27 08:39:11;;;;;;;7.20;6.60;;;32.20;1.00;;;32.74;34.50;100751.72;5071335;28;20420;-74
2022/06/27 08:41:41;;;;;;;7.13;6.53;;;32.30;1.00;;;33.01;34.35;100745.31;5067514;28;20460;-76
2022/06/27 08:44:12;;;;;;;5.60;5.20;;;32.50;1.00;;;33.17;33.82;100746.19;5052945;28;20939;-74
2022/06/27 08:46:45;;;;;;;6.60;5.23;;;32.70;1.00;;;33.33;33.18;100742.63;5070588;28;20488;-75
2022/06/27 08:49:16;;;;;;;5.90;5.13;;;32.90;1.00;;;33.44;33.10;100749.34;5069576;28;20445;-75
2022/06/27 08:51:45;;;;;;;7.50;4.67;;;33.00;1.00;;;33.58;32.19;100750.53;5070826;28;20880;-76
2022/06/27 08:54:15;;;;;;;5.00;4.27;;;33.20;1.00;;;33.44;32.02;100757.75;5064143;28;20492;-74
2022/06/27 08:56:44;;;;;;;4.73;4.33;;;33.20;1.00;;;33.54;32.36;100748.81;5070435;28;20860;-73
2022/06/27 08:59:13;;;;;;;6.30;5.70;;;33.20;1.00;;;33.36;33.02;100753.09;5071488;28;20531;-76
2022/06/27 09:01:48;;;;;;;5.47;5.07;;;33.00;1.00;;;33.49;33.37;100752.69;5071880;28;20453;-74
2022/06/27 09:04:17;;;;;;;5.60;4.80;;;33.10;1.00;;;33.50;33.25;100759.91;5064987;28;20433;-77
2022/06/27 09:06:58;;;;;;;5.73;5.33;;;33.10;1.00;;;33.64;33.41;100753.91;5067000;28;20466;-75
2022/06/27 09:09:29;;;;;;;6.73;6.00;;;33.10;1.00;;;33.59;34.08;100748.56;5066190;28;20562;-76
2022/06/27 09:12:05;;;;;;;6.17;5.67;;;33.10;1.00;;;33.38;34.60;100743.19;5070339;28;20460;-74
2022/06/27 09:14:39;;;;;;;6.30;5.70;;;33.10;1.00;;;33.39;33.74;100746.78;5052492;28;20457;-76
2022/06/27 09:17:12;;;;;;;4.50;4.20;;;33.10;1.00;;;33.31;33.38;100742.19;5070445;28;20490;-76
2022/06/27 09:19:50;;;;;;;4.77;4.37;;;33.00;1.00;;;33.52;32.37;100735.13;5070229;28;20442;-75
2022/06/27 09:22:22;;;;;;;5.20;4.80;;;33.00;1.00;;;33.82;32.44;100732.75;5066495;28;20518;-74
2022/06/27 09:25:09;;;;;;;7.77;4.83;;;33.20;1.00;;;33.85;32.50;100731.19;5068492;28;20511;-74
2022/06/27 09:27:45;;;;;;;5.60;5.20;;;33.50;1.00;;;33.71;33.55;100736.44;5065279;28;20478;-74
2022/06/27 09:30:32;;;;;;;5.13;4.73;;;33.30;1.00;;;33.87;33.11;100726.84;5069959;28;20835;-76
2022/06/27 09:33:04;;;;;;;6.20;4.70;;;33.40;1.00;;;34.14;33.36;100729.88;5062262;28;20451;-73
2022/06/27 09:35:35;;;;;;;5.03;4.63;;;33.60;1.00;;;34.16;32.63;100733.97;5074311;28;20503;-74
2022/06/27 09:38:07;;;;;;;5.77;5.33;;;33.70;1.00;;;34.44;33.19;100726.22;5064224;28;20429;-74
2022/06/27 09:40:41;;;;;;;4.83;4.43;;;33.90;1.00;;;34.47;32.95;100719.88;5073617;28;20422;-75
2022/06/27 09:43:11;;;;;;;7.90;7.30;;;34.00;1.00;;;34.62;32.31;100720.16;5065844;28;20503;-73
2022/06/27 09:45:42;;;;;;;5.70;5.30;;;34.10;1.00;;;34.25;32.41;100716.94;5064761;28;20442;-74
2022/06/27 09:48:17;;;;;;;5.13;4.70;;;33.90;1.00;;;34.32;32.77;100731.16;5068805;28;20473;-74
2022/06/27 09:50:48;;;;;;;5.60;5.10;;;34.00;1.00;;;34.42;32.63;100727.78;5066624;28;20552;-73
2022/06/27 09:53:25;;;;;;;5.73;4.90;;;34.00;1.00;;;34.47;31.55;100727.47;5068421;28;20449;-76
2022/06/27 09:55:56;;;;;;;5.20;4.80;;;34.00;1.00;;;34.23;31.11;100722.91;5031024;28;20491;-74
2022/06/27 09:58:26;;;;;;;5.87;5.47;;;33.80;1.00;;;34.27;32.03;100714.59;5029458;28;20440;-73
2022/06/27 10:01:16;;;;;;;5.93;5.47;;;33.80;1.00;;;34.20;33.08;100720.03;5025036;28;20519;-75
2022/06/27 10:03:45;;;;;;;6.60;6.00;;;33.80;1.00;;;34.35;32.96;100717.19;5028838;28;20443;-75
2022/06/27 10:06:16;;;;;;;5.80;5.30;;;33.90;1.00;;;34.60;32.39;100709.31;5025202;28;20440;-72
2022/06/27 10:08:48;;;;;;;93.23;13.00;;;34.10;1.00;;;34.54;31.79;100702.34;5034697;28;20458;-73
2022/06/27 10:11:24;;;;;;;5.40;3.83;;;34.10;1.00;;;34.77;30.86;100705.28;5048062;28;20498;-76
2022/06/27 10:14:19;;;;;;;2.57;2.37;;;34.30;1.00;;;34.83;30.91;100693.38;5040822;28;20436;-71
2022/06/27 10:16:54;;;;;;;7.73;4.07;;;34.40;1.00;;;35.00;30.55;100716.59;5036533;28;20441;-74
2022/06/27 10:19:26;;;;;;;3.70;3.37;;;34.60;1.00;;;35.18;29.75;100703.72;5044799;28;20431;-73
2022/06/27 10:21:57;;;;;;;3.13;2.83;;;34.60;1.00;;;34.95;29.94;100722.53;5033718;28;20455;-74
2022/06/27 10:24:43;;;;;;;2.53;2.33;;;34.50;1.00;;;34.74;29.54;100712.47;5026259;28;20460;-76
2022/06/27 10:27:31;;;;;;;4.77;3.10;;;34.40;1.00;;;34.89;30.01;100714.38;5027184;28;20467;-75
2022/06/27 10:30:00;;;;;;;3.00;2.80;;;34.50;1.00;;;34.77;30.21;100710.91;5024195;28;20486;-75
2022/06/27 10:32:47;;;;;;;4.20;3.80;;;34.50;1.00;;;34.67;30.39;100715.09;5023835;28;20818;-77